createdAt,value
2018-05-16T00:01:13.348Z,15.00
2018-05-16T00:03:40.770Z,15.10
2018-05-16T00:06:08.197Z,15.20
2018-05-16T00:08:35.617Z,15.20
2018-05-16T00:11:03.087Z,15.20
2018-05-16T00:13:30.506Z,15.20
2018-05-16T00:15:57.942Z,15.00
2018-05-16T00:18:25.381Z,14.80
2018-05-16T00:20:52.804Z,14.80
2018-05-16T00:23:20.334Z,14.80
2018-05-16T00:25:48.506Z,14.90
2018-05-16T00:28:15.991Z,14.90
2018-05-16T00:30:43.413Z,14.90
2018-05-16T00:33:10.834Z,14.90
2018-05-16T00:35:38.299Z,14.80
2018-05-16T00:38:06.466Z,14.80
2018-05-16T00:40:34.653Z,14.80
2018-05-16T00:43:02.837Z,14.80
2018-05-16T00:45:31.034Z,14.80
2018-05-16T00:47:58.518Z,14.80
2018-05-16T00:50:25.987Z,14.80
2018-05-16T00:52:53.393Z,14.70
2018-05-16T00:55:20.916Z,14.60
2018-05-16T00:57:48.399Z,14.70
2018-05-16T01:00:16.569Z,14.80
2018-05-16T01:02:44.750Z,14.80
2018-05-16T01:05:12.997Z,14.90
2018-05-16T01:07:40.419Z,14.90
2018-05-16T01:10:07.840Z,14.90
2018-05-16T01:12:35.263Z,14.90
2018-05-16T01:15:02.740Z,14.90
2018-05-16T01:17:30.151Z,14.90
2018-05-16T01:19:57.585Z,14.90
2018-05-16T01:22:24.992Z,14.90
2018-05-16T01:24:52.518Z,14.90
2018-05-16T01:27:19.946Z,14.90
2018-05-16T01:29:47.373Z,14.90
2018-05-16T01:32:14.785Z,14.90
2018-05-16T01:34:42.294Z,14.90
2018-05-16T01:37:09.714Z,14.80
2018-05-16T01:39:37.137Z,14.90
2018-05-16T01:42:04.562Z,14.90
2018-05-16T01:44:31.989Z,14.80
2018-05-16T01:46:59.438Z,14.80
2018-05-16T01:49:26.848Z,14.80
2018-05-16T01:51:54.268Z,14.80
2018-05-16T01:54:21.690Z,14.80
2018-05-16T01:56:49.208Z,14.80
2018-05-16T01:59:16.636Z,14.90
2018-05-16T02:01:44.064Z,14.90
2018-05-16T02:04:11.477Z,14.90
2018-05-16T02:06:38.900Z,14.90
2018-05-16T02:09:06.366Z,14.90
2018-05-16T02:11:33.838Z,14.90
2018-05-16T02:14:02.002Z,14.90
2018-05-16T02:16:30.189Z,14.90
2018-05-16T02:18:58.397Z,14.90
2018-05-16T02:21:26.586Z,14.90
2018-05-16T02:23:54.057Z,14.90
2018-05-16T02:26:21.519Z,14.90
2018-05-16T02:28:48.996Z,14.80
2018-05-16T02:31:17.173Z,14.70
2018-05-16T02:33:44.589Z,14.70
2018-05-16T02:36:12.026Z,14.70
2018-05-16T02:38:39.446Z,14.60
2018-05-16T02:41:06.963Z,14.60
2018-05-16T02:43:35.126Z,14.50
2018-05-16T02:46:03.314Z,14.50
2018-05-16T02:48:31.617Z,14.50
2018-05-16T02:50:59.041Z,14.50
2018-05-16T02:53:26.470Z,14.50
2018-05-16T02:55:53.903Z,14.50
2018-05-16T02:58:22.092Z,14.50
2018-05-16T03:00:49.512Z,14.40
2018-05-16T03:03:16.969Z,14.50
2018-05-16T03:05:45.254Z,14.40
2018-05-16T03:08:13.413Z,14.40
2018-05-16T03:10:41.611Z,14.50
2018-05-16T03:13:09.789Z,14.50
2018-05-16T03:15:37.988Z,14.60
2018-05-16T03:18:05.476Z,14.60
2018-05-16T03:20:33.645Z,14.60
2018-05-16T03:23:01.065Z,14.60
2018-05-16T03:25:28.599Z,14.70
2018-05-16T03:27:56.770Z,14.70
2018-05-16T03:30:24.229Z,14.70
2018-05-16T03:32:53.263Z,14.70
2018-05-16T03:35:21.446Z,14.80
2018-05-16T03:37:48.870Z,14.70
2018-05-16T03:40:16.297Z,14.70
2018-05-16T03:42:43.712Z,14.80
2018-05-16T03:45:11.137Z,14.80
2018-05-16T03:47:38.561Z,14.80
2018-05-16T03:50:06.762Z,14.70
2018-05-16T03:52:34.945Z,14.70
2018-05-16T03:55:03.138Z,14.70
2018-05-16T03:57:43.326Z,14.80
2018-05-16T04:00:22.769Z,14.80
2018-05-16T04:03:02.094Z,14.80
2018-05-16T04:05:29.521Z,14.80
2018-05-16T04:07:56.933Z,14.80
2018-05-16T04:10:24.362Z,14.80
2018-05-16T04:12:51.784Z,14.80
2018-05-16T04:15:19.992Z,14.80
2018-05-16T04:17:48.157Z,14.80
2018-05-16T04:20:16.350Z,14.90
2018-05-16T04:22:44.562Z,14.90
2018-05-16T04:25:11.969Z,14.90
2018-05-16T04:27:39.397Z,14.90
2018-05-16T04:30:06.817Z,14.90
2018-05-16T04:32:34.255Z,14.90
2018-05-16T04:35:01.666Z,15.00
2018-05-16T04:37:29.087Z,15.00
2018-05-16T04:39:56.501Z,15.00
2018-05-16T04:42:24.702Z,15.00
2018-05-16T04:44:52.885Z,15.00
2018-05-16T04:47:21.097Z,15.10
2018-05-16T04:49:48.568Z,15.00
2018-05-16T04:52:16.757Z,15.10
2018-05-16T04:54:44.216Z,15.10
2018-05-16T04:57:11.649Z,15.00
2018-05-16T04:59:39.165Z,15.10
2018-05-16T05:02:06.594Z,15.10
2018-05-16T05:04:34.109Z,15.20
2018-05-16T05:07:02.278Z,15.30
2018-05-16T05:09:29.731Z,15.30
2018-05-16T05:11:57.928Z,15.60
2018-05-16T05:14:26.118Z,15.60
2018-05-16T05:16:54.328Z,15.70
2018-05-16T05:19:21.740Z,15.70
2018-05-16T05:21:49.266Z,15.80
2018-05-16T05:24:17.432Z,15.80
2018-05-16T05:26:45.744Z,15.80
2018-05-16T05:29:13.909Z,15.90
2018-05-16T05:31:42.115Z,15.90
2018-05-16T05:34:09.590Z,15.80
2018-05-16T05:36:37.757Z,15.70
2018-05-16T05:39:05.962Z,15.80
2018-05-16T05:41:33.364Z,15.80
2018-05-16T05:44:00.789Z,15.80
2018-05-16T05:46:28.209Z,15.80
2018-05-16T05:48:55.721Z,16.00
2018-05-16T05:51:23.138Z,16.10
2018-05-16T05:53:50.574Z,16.10
2018-05-16T05:56:17.984Z,16.10
2018-05-16T05:58:45.516Z,16.20
2018-05-16T06:01:12.925Z,16.30
2018-05-16T06:03:40.460Z,16.30
2018-05-16T06:06:07.873Z,16.40
2018-05-16T06:08:35.292Z,16.40
2018-05-16T06:11:02.699Z,16.50
2018-05-16T06:13:30.229Z,16.50
2018-05-16T06:15:57.654Z,16.50
2018-05-16T06:18:25.070Z,16.40
2018-05-16T06:20:52.488Z,16.40
2018-05-16T06:23:19.913Z,16.40
2018-05-16T06:25:47.321Z,16.60
2018-05-16T06:28:14.747Z,16.70
2018-05-16T06:30:42.162Z,16.80
2018-05-16T06:33:09.685Z,16.80
2018-05-16T06:35:37.106Z,16.80
2018-05-16T06:38:04.530Z,16.90
2018-05-16T06:40:31.939Z,16.90
2018-05-16T06:42:59.363Z,16.90
2018-05-16T06:45:26.837Z,17.10
2018-05-16T06:47:54.988Z,17.30
2018-05-16T06:50:23.177Z,17.50
2018-05-16T06:52:51.355Z,17.80
2018-05-16T06:55:18.776Z,17.80
2018-05-16T06:57:46.189Z,18.10
2018-05-16T07:00:13.613Z,18.10
2018-05-16T07:02:41.024Z,18.30
2018-05-16T07:05:08.450Z,18.40
2018-05-16T07:07:35.924Z,18.50
2018-05-16T07:10:03.345Z,18.90
2018-05-16T07:12:30.753Z,19.70
2018-05-16T07:14:58.172Z,20.20
2018-05-16T07:17:25.689Z,20.80
2018-05-16T07:19:53.114Z,21.70
2018-05-16T07:22:20.530Z,22.30
2018-05-16T07:24:47.991Z,22.80
2018-05-16T07:27:15.400Z,22.70
2018-05-16T07:29:42.812Z,22.70
2018-05-16T07:32:10.998Z,22.20
2018-05-16T07:34:39.202Z,22.30
2018-05-16T07:37:06.696Z,22.30
2018-05-16T07:39:34.105Z,22.60
2018-05-16T07:42:01.568Z,22.50
2018-05-16T07:44:28.961Z,22.50
2018-05-16T07:46:57.212Z,22.40
2018-05-16T07:49:25.325Z,22.40
2018-05-16T07:51:52.741Z,22.40
2018-05-16T07:54:20.156Z,22.40
2018-05-16T07:56:47.674Z,22.50
2018-05-16T07:59:15.076Z,22.40
2018-05-16T08:01:42.504Z,22.40
2018-05-16T08:04:09.922Z,22.30
2018-05-16T08:06:37.350Z,22.20
2018-05-16T08:09:05.312Z,21.90
2018-05-16T08:11:33.495Z,22.10
2018-05-16T08:14:01.674Z,22.20
2018-05-16T08:16:29.886Z,22.40
2018-05-16T08:18:57.300Z,22.40
2018-05-16T08:21:24.828Z,22.40
2018-05-16T08:23:52.249Z,22.40
2018-05-16T08:26:19.665Z,22.60
2018-05-16T08:28:47.084Z,22.70
2018-05-16T08:31:14.526Z,22.70
2018-05-16T08:33:41.975Z,22.60
2018-05-16T08:36:09.449Z,22.30
2018-05-16T08:38:36.864Z,22.00
2018-05-16T08:41:04.387Z,21.80
2018-05-16T08:43:31.817Z,22.00
2018-05-16T08:46:00.749Z,21.80
2018-05-16T08:48:28.920Z,21.80
2018-05-16T08:50:57.108Z,21.60
2018-05-16T08:53:24.534Z,21.60
2018-05-16T08:55:52.741Z,21.50
2018-05-16T08:58:20.166Z,21.50
2018-05-16T09:00:47.593Z,21.50
2018-05-16T09:03:14.998Z,21.60
2018-05-16T09:05:42.410Z,22.00
2018-05-16T09:08:09.829Z,22.20
2018-05-16T09:10:37.345Z,22.10
2018-05-16T09:13:04.821Z,22.10
2018-05-16T09:15:32.233Z,22.30
2018-05-16T09:17:59.752Z,22.60
2018-05-16T09:20:27.169Z,22.90
2018-05-16T09:22:54.586Z,23.20
2018-05-16T09:25:22.760Z,23.50
2018-05-16T09:27:50.970Z,23.50
2018-05-16T09:30:18.381Z,23.50
2018-05-16T09:32:45.808Z,23.70
2018-05-16T09:35:13.224Z,23.80
2018-05-16T09:37:40.656Z,23.70
2018-05-16T09:40:08.117Z,23.80
2018-05-16T09:42:35.540Z,23.90
2018-05-16T09:45:02.950Z,24.00
2018-05-16T09:47:31.119Z,24.30
2018-05-16T09:49:59.333Z,24.10
2018-05-16T09:52:26.755Z,24.10
2018-05-16T09:54:54.941Z,23.40
2018-05-16T09:57:22.357Z,23.30
2018-05-16T09:59:49.829Z,23.20
2018-05-16T10:02:17.236Z,23.10
2018-05-16T10:04:44.655Z,23.00
2018-05-16T10:07:12.077Z,23.10
2018-05-16T10:09:39.507Z,23.00
2018-05-16T10:12:06.896Z,22.90
2018-05-16T10:14:34.316Z,22.80
2018-05-16T10:17:02.580Z,22.40
2018-05-16T10:19:29.913Z,22.40
2018-05-16T10:21:57.321Z,22.30
2018-05-16T10:24:24.746Z,22.30
2018-05-16T10:26:52.161Z,22.40
2018-05-16T10:29:20.348Z,22.40
2018-05-16T10:31:47.769Z,22.40
2018-05-16T10:34:15.185Z,22.20
2018-05-16T10:36:42.705Z,21.80
2018-05-16T10:39:10.148Z,21.70
2018-05-16T10:41:37.572Z,21.90
2018-05-16T10:44:04.961Z,21.90
2018-05-16T10:46:32.386Z,21.90
2018-05-16T10:48:59.805Z,21.70
2018-05-16T10:51:27.230Z,21.60
2018-05-16T10:53:54.647Z,21.80
2018-05-16T10:56:22.066Z,22.00
2018-05-16T10:58:49.472Z,22.40
2018-05-16T11:01:16.920Z,23.00
2018-05-16T11:03:44.328Z,23.60
2018-05-16T11:06:12.529Z,24.20
2018-05-16T11:08:40.716Z,24.20
2018-05-16T11:11:08.897Z,24.10
2018-05-16T11:13:37.077Z,24.40
2018-05-16T11:16:04.609Z,24.40
2018-05-16T11:18:32.017Z,24.80
2018-05-16T11:21:00.205Z,24.90
2018-05-16T11:23:28.380Z,24.90
2018-05-16T11:25:55.799Z,24.80
2018-05-16T11:28:24.026Z,24.90
2018-05-16T11:30:51.436Z,25.20
2018-05-16T11:33:18.916Z,25.40
2018-05-16T11:35:46.332Z,25.70
2018-05-16T11:38:13.745Z,25.50
2018-05-16T11:40:41.200Z,25.60
2018-05-16T11:43:09.382Z,26.50
2018-05-16T11:45:36.802Z,26.40
2018-05-16T11:48:04.213Z,26.90
2018-05-16T11:50:31.781Z,27.10
2018-05-16T11:52:59.201Z,27.20
2018-05-16T11:55:26.617Z,26.90
2018-05-16T11:57:54.040Z,26.90
2018-05-16T12:00:21.452Z,27.00
2018-05-16T12:02:48.939Z,26.70
2018-05-16T12:05:16.280Z,26.30
2018-05-16T12:07:43.805Z,25.80
2018-05-16T12:10:11.221Z,25.40
2018-05-16T12:12:38.641Z,25.20
2018-05-16T12:15:06.049Z,25.10
2018-05-16T12:17:33.491Z,25.10
2018-05-16T12:20:01.657Z,25.10
2018-05-16T12:22:29.841Z,25.20
2018-05-16T12:24:58.021Z,25.30
2018-05-16T12:27:26.210Z,25.60
2018-05-16T12:29:54.388Z,26.00
2018-05-16T12:32:22.581Z,26.30
2018-05-16T12:34:49.994Z,26.20
2018-05-16T12:37:17.428Z,26.60
2018-05-16T12:39:45.605Z,26.50
2018-05-16T12:42:13.797Z,26.80
2018-05-16T12:44:42.010Z,26.80
2018-05-16T12:47:09.440Z,26.80
2018-05-16T12:49:36.845Z,26.80
2018-05-16T12:52:04.314Z,26.50
2018-05-16T12:54:31.754Z,26.20
2018-05-16T12:56:59.177Z,25.90
2018-05-16T12:59:26.590Z,26.00
2018-05-16T13:01:53.997Z,25.90
2018-05-16T13:04:21.413Z,26.10
2018-05-16T13:06:48.834Z,26.40
2018-05-16T13:09:16.245Z,26.40
2018-05-16T13:11:43.739Z,26.40
2018-05-16T13:14:11.161Z,26.60
2018-05-16T13:16:38.569Z,26.60
2018-05-16T13:19:05.989Z,26.50
2018-05-16T13:21:33.423Z,26.30
2018-05-16T13:24:00.921Z,26.20
2018-05-16T13:26:29.077Z,26.50
2018-05-16T13:28:57.263Z,26.30
2018-05-16T13:31:25.478Z,26.20
2018-05-16T13:33:52.898Z,26.20
2018-05-16T13:36:20.394Z,26.20
2018-05-16T13:38:47.731Z,26.20
2018-05-16T13:41:15.141Z,26.30
2018-05-16T13:43:42.561Z,26.50
2018-05-16T13:46:09.974Z,26.80
2018-05-16T13:48:38.173Z,27.40
2018-05-16T13:51:05.593Z,27.30
2018-05-16T13:53:33.014Z,27.50
2018-05-16T13:56:00.489Z,27.30
2018-05-16T13:58:27.959Z,26.80
2018-05-16T14:00:55.373Z,26.50
2018-05-16T14:03:22.793Z,26.40
2018-05-16T14:05:50.208Z,26.50
2018-05-16T14:08:17.621Z,26.60
2018-05-16T14:10:45.045Z,26.80
2018-05-16T14:13:12.457Z,26.90
2018-05-16T14:15:40.648Z,26.80
2018-05-16T14:18:08.059Z,26.80
2018-05-16T14:20:35.492Z,26.80
2018-05-16T14:23:02.972Z,27.00
2018-05-16T14:25:30.413Z,27.00
2018-05-16T14:27:58.601Z,26.50
2018-05-16T14:30:26.857Z,26.20
2018-05-16T14:32:54.277Z,26.20
2018-05-16T14:35:21.688Z,26.00
2018-05-16T14:37:49.097Z,26.00
2018-05-16T14:40:17.276Z,26.20
2018-05-16T14:42:45.480Z,26.30
2018-05-16T14:45:12.886Z,26.30
2018-05-16T14:47:40.414Z,26.20
2018-05-16T14:50:07.826Z,25.90
2018-05-16T14:52:35.241Z,25.20
2018-05-16T14:55:03.422Z,24.30
2018-05-16T14:57:30.849Z,24.20
2018-05-16T14:59:58.266Z,23.90
2018-05-16T15:02:26.447Z,23.30
2018-05-16T15:04:53.865Z,23.20
2018-05-16T15:07:21.304Z,22.90
2018-05-16T15:09:48.697Z,22.60
2018-05-16T15:12:16.121Z,22.40
2018-05-16T15:14:43.585Z,22.30
2018-05-16T15:17:10.949Z,22.20
2018-05-16T15:19:38.372Z,22.30
2018-05-16T15:22:05.822Z,22.30
2018-05-16T15:24:34.037Z,22.40
2018-05-16T15:27:01.509Z,22.40
2018-05-16T15:29:28.922Z,22.30
2018-05-16T15:31:56.353Z,22.30
2018-05-16T15:34:23.765Z,22.30
2018-05-16T15:36:51.969Z,22.20
2018-05-16T15:39:20.140Z,22.10
2018-05-16T15:41:47.576Z,22.10
2018-05-16T15:44:14.997Z,22.10
2018-05-16T15:46:43.225Z,21.90
2018-05-16T15:49:11.357Z,21.80
2018-05-16T15:51:39.540Z,21.70
2018-05-16T15:54:06.956Z,21.60
2018-05-16T15:56:34.419Z,21.60
2018-05-16T15:59:01.893Z,21.50
2018-05-16T16:01:29.309Z,21.50
2018-05-16T16:03:56.730Z,21.60
2018-05-16T16:06:24.153Z,21.70
2018-05-16T16:08:51.583Z,21.90
2018-05-16T16:11:18.997Z,21.80
2018-05-16T16:13:47.267Z,22.20
2018-05-16T16:16:14.593Z,22.20
2018-05-16T16:18:42.019Z,22.50
2018-05-16T16:21:09.429Z,22.50
2018-05-16T16:23:36.860Z,22.60
2018-05-16T16:26:04.368Z,22.60
2018-05-16T16:28:31.789Z,22.60
2018-05-16T16:30:59.961Z,22.60
2018-05-16T16:33:27.489Z,22.60
2018-05-16T16:35:54.964Z,22.60
2018-05-16T16:38:22.397Z,22.50
2018-05-16T16:40:50.581Z,22.40
2018-05-16T16:43:18.058Z,22.40
2018-05-16T16:45:46.244Z,22.10
2018-05-16T16:48:13.701Z,22.10
2018-05-16T16:50:41.118Z,22.00
2018-05-16T16:53:08.547Z,22.10
2018-05-16T16:55:35.948Z,22.10
2018-05-16T16:58:03.365Z,22.00
2018-05-16T17:00:30.786Z,22.00
2018-05-16T17:02:58.200Z,21.90
2018-05-16T17:05:25.632Z,22.00
2018-05-16T17:07:53.040Z,22.00
2018-05-16T17:10:20.465Z,21.90
2018-05-16T17:12:47.869Z,22.00
2018-05-16T17:15:15.334Z,22.00
2018-05-16T17:17:42.748Z,21.90
2018-05-16T17:20:11.029Z,21.90
2018-05-16T17:22:39.118Z,21.90
2018-05-16T17:25:07.304Z,21.90
2018-05-16T17:27:35.498Z,21.80
2018-05-16T17:30:03.712Z,21.70
2018-05-16T17:32:31.157Z,21.60
2018-05-16T17:34:59.340Z,21.70
2018-05-16T17:37:27.554Z,21.60
2018-05-16T17:39:54.973Z,21.60
2018-05-16T17:42:22.408Z,21.60
2018-05-16T17:44:49.833Z,21.50
2018-05-16T17:47:18.015Z,21.40
2018-05-16T17:49:45.437Z,21.40
2018-05-16T17:52:12.854Z,21.10
2018-05-16T17:54:40.274Z,21.10
2018-05-16T17:57:07.694Z,21.00
2018-05-16T17:59:35.137Z,20.90
2018-05-16T18:02:02.556Z,20.90
2018-05-16T18:04:30.038Z,20.80
2018-05-16T18:06:58.204Z,20.40
2018-05-16T18:09:26.396Z,20.20
2018-05-16T18:11:54.587Z,20.20
2018-05-16T18:14:34.533Z,20.20
2018-05-16T18:17:23.373Z,20.10
2018-05-16T18:19:50.797Z,20.10
2018-05-16T18:22:18.212Z,20.00
2018-05-16T18:24:45.630Z,20.10
2018-05-16T18:27:13.105Z,20.00
2018-05-16T18:29:40.522Z,19.80
2018-05-16T18:32:07.942Z,19.90
2018-05-16T18:34:35.348Z,19.90
2018-05-16T18:37:02.789Z,19.90
2018-05-16T18:39:30.196Z,20.00
2018-05-16T18:41:57.730Z,19.90
2018-05-16T18:44:25.232Z,19.90
2018-05-16T18:46:52.631Z,19.80
2018-05-16T18:49:21.612Z,19.70
2018-05-16T18:51:49.761Z,19.60
2018-05-16T18:54:17.177Z,19.60
2018-05-16T18:56:44.605Z,19.50
2018-05-16T18:59:12.026Z,19.40
2018-05-16T19:01:39.449Z,19.30
2018-05-16T19:04:06.901Z,19.20
2018-05-16T19:06:34.329Z,19.10
2018-05-16T19:09:01.736Z,19.10
2018-05-16T19:11:29.153Z,19.00
2018-05-16T19:13:56.569Z,19.00
2018-05-16T19:16:23.989Z,18.90
2018-05-16T19:18:51.411Z,18.90
2018-05-16T19:21:18.889Z,18.90
2018-05-16T19:23:46.319Z,18.80
2018-05-16T19:26:13.720Z,18.80
2018-05-16T19:28:41.140Z,18.80
2018-05-16T19:31:08.583Z,18.70
2018-05-16T19:33:35.997Z,18.70
2018-05-16T19:36:03.418Z,18.60
2018-05-16T19:38:30.841Z,18.50
2018-05-16T19:40:59.022Z,18.30
2018-05-16T19:43:26.445Z,18.30
2018-05-16T19:45:53.906Z,18.20
2018-05-16T19:48:21.312Z,18.10
2018-05-16T19:50:48.732Z,18.10
2018-05-16T19:53:16.207Z,17.90
2018-05-16T19:55:43.613Z,17.90
2018-05-16T19:58:11.033Z,17.70
2018-05-16T20:00:39.214Z,17.60
2018-05-16T20:03:07.417Z,17.50
2018-05-16T20:05:34.832Z,17.50
2018-05-16T20:08:02.265Z,17.50
2018-05-16T20:10:29.681Z,17.40
2018-05-16T20:12:57.095Z,17.30
2018-05-16T20:15:24.516Z,17.20
2018-05-16T20:17:51.948Z,17.10
2018-05-16T20:20:19.372Z,17.20
2018-05-16T20:22:47.557Z,17.20
2018-05-16T20:25:15.778Z,17.20
2018-05-16T20:27:43.241Z,17.20
2018-05-16T20:30:10.660Z,17.20
2018-05-16T20:32:38.084Z,17.20
2018-05-16T20:35:05.526Z,17.10
2018-05-16T20:37:33.708Z,17.10
2018-05-16T20:40:01.319Z,17.10
2018-05-16T20:42:28.625Z,17.10
2018-05-16T20:44:56.054Z,17.20
2018-05-16T20:47:23.470Z,17.20
2018-05-16T20:49:50.897Z,17.30
2018-05-16T20:52:18.362Z,17.30
2018-05-16T20:54:45.824Z,17.30
2018-05-16T20:57:13.238Z,17.30
2018-05-16T20:59:40.668Z,17.40
2018-05-16T21:02:08.082Z,17.30
2018-05-16T21:04:35.522Z,17.30
2018-05-16T21:07:02.932Z,17.30
2018-05-16T21:09:30.367Z,17.30
2018-05-16T21:11:57.782Z,17.30
2018-05-16T21:14:25.205Z,17.40
2018-05-16T21:16:52.629Z,17.30
2018-05-16T21:19:20.846Z,17.40
2018-05-16T21:21:48.286Z,17.40
2018-05-16T21:24:16.500Z,17.50
2018-05-16T21:26:43.921Z,17.40
2018-05-16T21:29:11.440Z,17.50
2018-05-16T21:31:38.865Z,17.50
2018-05-16T21:34:06.268Z,17.50
2018-05-16T21:36:33.693Z,17.60
2018-05-16T21:39:01.106Z,17.60
2018-05-16T21:41:28.529Z,17.60
2018-05-16T21:43:55.953Z,17.60
2018-05-16T21:46:23.372Z,17.60
2018-05-16T21:48:50.793Z,17.50
2018-05-16T21:51:18.215Z,17.50
2018-05-16T21:53:45.629Z,17.60
2018-05-16T21:56:13.050Z,17.60
2018-05-16T21:58:40.561Z,17.60
2018-05-16T22:01:08.041Z,17.60
2018-05-16T22:03:35.448Z,17.60
2018-05-16T22:06:02.873Z,17.60
2018-05-16T22:08:30.288Z,17.60
2018-05-16T22:10:57.711Z,17.60
2018-05-16T22:13:25.144Z,17.50
2018-05-16T22:15:52.554Z,17.50
2018-05-16T22:18:19.973Z,17.50
2018-05-16T22:20:47.397Z,17.50
2018-05-16T22:23:14.812Z,17.40
2018-05-16T22:25:42.233Z,17.40
2018-05-16T22:28:09.698Z,17.30
2018-05-16T22:30:42.777Z,17.30
2018-05-16T22:33:15.978Z,17.40
2018-05-16T22:35:49.874Z,17.40
2018-05-16T22:38:23.040Z,17.40
2018-05-16T22:40:56.077Z,17.30
2018-05-16T22:43:23.498Z,17.20
2018-05-16T22:45:54.737Z,17.20
2018-05-16T22:48:22.932Z,17.10
2018-05-16T22:50:51.113Z,17.00
2018-05-16T22:53:19.301Z,17.00
2018-05-16T22:55:47.516Z,17.00
2018-05-16T22:58:14.941Z,16.90
2018-05-16T23:00:42.374Z,16.90
2018-05-16T23:03:09.793Z,16.90
2018-05-16T23:05:37.973Z,16.60
2018-05-16T23:08:06.169Z,16.70
2018-05-16T23:10:34.357Z,16.70
2018-05-16T23:13:02.575Z,16.70
2018-05-16T23:15:30.142Z,16.60
2018-05-16T23:17:57.564Z,16.70
2018-05-16T23:20:25.076Z,16.70
2018-05-16T23:22:53.180Z,16.70
2018-05-16T23:25:20.597Z,16.70
2018-05-16T23:27:48.019Z,16.70
2018-05-16T23:30:15.470Z,16.70
2018-05-16T23:32:42.889Z,16.70
2018-05-16T23:35:10.318Z,16.60
2018-05-16T23:37:37.776Z,16.60
2018-05-16T23:40:05.209Z,16.60
2018-05-16T23:42:32.722Z,16.30
2018-05-16T23:45:00.144Z,16.00
2018-05-16T23:47:27.568Z,15.90
2018-05-16T23:49:54.997Z,15.80
2018-05-16T23:52:22.505Z,15.60
2018-05-16T23:54:49.934Z,15.60
2018-05-16T23:57:18.122Z,15.80
2018-05-16T23:59:45.541Z,15.80
